»·PEaware :: N708ES KFUL-KGCN

N708ES :: KFUL-KGCN

FLIGHT INFORMATION

Flight Status: Arrived
Operator: Privately registered:
United States
More flights under this callsign
Pilot: Eric F. (9346)
Aircraft: CIRRUS SR-22
(SR22)
More flights by this aircraft type
Origin: KFUL Fullerton Mun
United States
Destination: KGCN Grand Canyon Natl Park
United States
More flights between these airports :: More routes between these airports
Route: +ANAHM9 HEC V210 GCN
File this flight plan on PilotEdge
Remarks:
Altitude:
(Current/Filed)
13,000ft
Speed:
(Current/Filed)
145kts
Departed: 16-Apr-18 12:35 PM
Arrived: 16-Apr-18 02:47 PM
Distance/Time
Traveled:
313nm/2:12
Distance/Time
To Go:
Arrived

Flight Plot

Page will automatically refresh every two minutes.

Flight plan parsing failed; only flown route is shown


Map Options




Map Legend


Flown Route
Filed Route
Departure Airport
Arrival Airport
Navaid (VOR, NDB)
Fix

Horizontal Profiles

Position Reports

Time Latitude Longitude Heading Altitude Ground
Speed
16-Apr-18 12:19 33.871167 -117.978182 258 91ft 0kts
16-Apr-18 12:20 33.871167 -117.978182 258 91ft 0kts
16-Apr-18 12:21 33.871167 -117.978182 258 91ft 0kts
16-Apr-18 12:22 33.871167 -117.978182 258 91ft 0kts
16-Apr-18 12:23 33.871167 -117.978182 258 91ft 0kts
16-Apr-18 12:24 33.871167 -117.978182 258 91ft 0kts
16-Apr-18 12:25 33.871167 -117.978182 258 91ft 0kts
16-Apr-18 12:26 33.871167 -117.978182 258 91ft 0kts
16-Apr-18 12:27 33.871167 -117.978182 258 91ft 0kts
16-Apr-18 12:28 33.871167 -117.978182 258 91ft 0kts
16-Apr-18 12:29 33.871167 -117.978182 258 91ft 0kts
16-Apr-18 12:30 33.871928 -117.977934 74 91ft 16kts
16-Apr-18 12:31 33.872516 -117.974902 23 94ft 0kts
16-Apr-18 12:32 33.872516 -117.974902 23 94ft 0kts
16-Apr-18 12:33 33.872518 -117.974900 22 94ft 0kts
16-Apr-18 12:34 33.871453 -117.982910 256 152ft 96kts
16-Apr-18 12:35 33.858194 -117.999646 163 1140ft 113kts
16-Apr-18 12:36 33.839266 -117.977153 132 1957ft 130kts
16-Apr-18 12:37 33.820723 -117.952150 131 2718ft 134kts
16-Apr-18 12:38 33.813342 -117.922346 58 3492ft 134kts
16-Apr-18 12:39 33.826542 -117.886113 71 4377ft 133kts
16-Apr-18 12:40 33.837825 -117.846332 71 5325ft 131kts
16-Apr-18 12:41 33.849147 -117.806436 71 6295ft 127kts
16-Apr-18 12:42 33.860424 -117.766680 71 6997ft 142kts
16-Apr-18 12:43 33.874317 -117.717793 71 6984ft 159kts
16-Apr-18 12:44 33.888666 -117.667408 71 6994ft 160kts
16-Apr-18 12:45 33.899638 -117.621875 88 7957ft 131kts
16-Apr-18 12:46 33.905767 -117.581874 74 8927ft 115kts
16-Apr-18 12:47 33.916416 -117.537916 72 9021ft 156kts
16-Apr-18 12:48 33.953080 -117.509212 26 9017ft 164kts
16-Apr-18 12:49 33.993915 -117.484711 26 9016ft 165kts
16-Apr-18 12:50 34.034509 -117.460347 26 9189ft 155kts
16-Apr-18 12:51 34.068867 -117.439699 26 10146ft 126kts
16-Apr-18 12:52 34.097635 -117.422387 26 11060ft 109kts
16-Apr-18 12:53 34.125012 -117.405906 26 11760ft 110kts
16-Apr-18 12:54 34.152379 -117.389425 26 12456ft 109kts
16-Apr-18 12:55 34.179426 -117.373122 26 13005ft 119kts
16-Apr-18 12:56 34.214264 -117.352120 26 12995ft 155kts
16-Apr-18 12:57 34.253842 -117.328239 26 12991ft 162kts
16-Apr-18 12:58 34.294406 -117.303726 26 12991ft 164kts
16-Apr-18 12:59 34.335122 -117.279093 26 13026ft 161kts
16-Apr-18 13:00 34.374937 -117.254978 26 13110ft 162kts
16-Apr-18 13:01 34.415510 -117.230378 26 13110ft 163kts
16-Apr-18 13:02 34.456159 -117.205705 26 13110ft 164kts
16-Apr-18 13:03 34.496951 -117.180918 26 13110ft 164kts
16-Apr-18 13:04 34.537736 -117.156109 26 13110ft 164kts
16-Apr-18 13:05 34.561700 -117.113304 65 13110ft 164kts
16-Apr-18 13:06 34.580235 -117.062586 65 13110ft 164kts
16-Apr-18 13:07 34.598758 -117.011813 65 13133ft 163kts
16-Apr-18 13:08 34.617157 -116.961294 65 13156ft 164kts
16-Apr-18 13:09 34.635625 -116.910511 65 13155ft 164kts
16-Apr-18 13:10 34.653648 -116.860873 66 13155ft 164kts
16-Apr-18 13:11 34.672098 -116.809979 66 13155ft 164kts
16-Apr-18 13:12 34.690525 -116.759066 66 13155ft 164kts
16-Apr-18 13:13 34.708907 -116.708198 66 13155ft 164kts
16-Apr-18 13:14 34.727337 -116.657114 66 13155ft 164kts
16-Apr-18 13:15 34.745688 -116.606170 66 13155ft 164kts
16-Apr-18 13:16 34.764032 -116.555160 66 13155ft 164kts
16-Apr-18 13:17 34.782329 -116.504203 66 13155ft 164kts
16-Apr-18 13:18 34.799796 -116.453008 72 13155ft 164kts
16-Apr-18 13:19 34.813796 -116.399809 72 13155ft 164kts
16-Apr-18 13:20 34.827798 -116.347016 71 13155ft 164kts
16-Apr-18 13:21 34.841857 -116.293924 71 13155ft 164kts
16-Apr-18 13:22 34.855889 -116.240832 71 13155ft 164kts
16-Apr-18 13:23 34.869864 -116.187853 71 13155ft 164kts
16-Apr-18 13:24 34.883874 -116.134636 71 13155ft 164kts
16-Apr-18 13:25 34.897785 -116.081689 71 13155ft 164kts
16-Apr-18 13:26 34.911767 -116.028365 71 13155ft 164kts
16-Apr-18 13:27 34.925672 -115.975227 71 13155ft 165kts
16-Apr-18 13:28 34.939554 -115.922072 71 13155ft 164kts
16-Apr-18 13:29 34.953028 -115.870377 72 13155ft 164kts
16-Apr-18 13:30 34.966843 -115.817267 72 13155ft 164kts
16-Apr-18 13:31 34.980643 -115.764111 72 13155ft 164kts
16-Apr-18 13:32 34.992070 -115.720015 72 13155ft 164kts
16-Apr-18 13:33 35.005801 -115.666924 72 13155ft 164kts
16-Apr-18 13:34 35.019478 -115.613936 72 13155ft 164kts
16-Apr-18 13:35 35.033176 -115.560761 72 13155ft 164kts
16-Apr-18 13:36 35.046813 -115.507717 72 13155ft 164kts
16-Apr-18 13:37 35.060456 -115.454540 72 13155ft 164kts
16-Apr-18 13:38 35.074055 -115.401429 72 13155ft 164kts
16-Apr-18 13:39 35.087675 -115.348124 72 13155ft 164kts
16-Apr-18 13:40 35.101193 -115.295111 72 13155ft 164kts
16-Apr-18 13:41 35.114746 -115.241851 72 13155ft 164kts
16-Apr-18 13:42 35.128248 -115.188684 72 13155ft 164kts
16-Apr-18 13:43 35.143627 -115.136283 69 13155ft 164kts
16-Apr-18 13:44 35.159781 -115.084215 68 13155ft 164kts
16-Apr-18 13:45 35.175939 -115.032088 68 13155ft 164kts
16-Apr-18 13:46 35.192051 -114.980015 68 13155ft 164kts
16-Apr-18 13:47 35.208147 -114.927902 68 13203ft 161kts
16-Apr-18 13:48 35.223521 -114.878041 69 13275ft 162kts
16-Apr-18 13:49 35.239544 -114.825986 69 13274ft 164kts
16-Apr-18 13:50 35.255523 -114.773981 69 13274ft 164kts
16-Apr-18 13:51 35.271530 -114.721790 69 13274ft 164kts
16-Apr-18 13:52 35.287549 -114.669469 69 13274ft 164kts
16-Apr-18 13:53 35.303520 -114.617205 69 13274ft 164kts
16-Apr-18 13:54 35.319510 -114.564786 69 13274ft 164kts
16-Apr-18 13:55 35.335450 -114.512438 69 13274ft 164kts
16-Apr-18 13:56 35.351347 -114.460134 69 13274ft 164kts
16-Apr-18 13:57 35.367256 -114.407697 69 13274ft 164kts
16-Apr-18 13:58 35.383106 -114.355359 69 13274ft 164kts
16-Apr-18 13:59 35.398995 -114.302798 69 13274ft 164kts
16-Apr-18 14:00 35.414807 -114.250394 69 13274ft 164kts
16-Apr-18 14:01 35.430596 -114.197972 69 13274ft 164kts
16-Apr-18 14:02 35.446350 -114.145572 69 13274ft 164kts
16-Apr-18 14:03 35.462112 -114.093046 69 13274ft 164kts
16-Apr-18 14:04 35.478739 -114.037523 69 12695ft 183kts
16-Apr-18 14:05 35.496237 -113.979009 69 12138ft 181kts
16-Apr-18 14:06 35.513456 -113.921285 69 11638ft 180kts
16-Apr-18 14:07 35.530216 -113.864991 70 11149ft 179kts
16-Apr-18 14:08 35.547270 -113.807593 70 10650ft 179kts
16-Apr-18 14:09 35.563727 -113.752096 70 10166ft 178kts
16-Apr-18 14:10 35.580642 -113.694944 70 9667ft 178kts
16-Apr-18 14:11 35.597366 -113.638330 70 9309ft 171kts
16-Apr-18 14:12 35.613114 -113.584897 70 9312ft 164kts
16-Apr-18 14:13 35.627857 -113.532169 74 9313ft 163kts
16-Apr-18 14:14 35.640573 -113.478703 73 9313ft 163kts
16-Apr-18 14:15 35.653410 -113.425295 73 9313ft 163kts
16-Apr-18 14:16 35.666622 -113.370231 73 9026ft 171kts
16-Apr-18 14:17 35.679696 -113.315642 73 9020ft 164kts
16-Apr-18 14:18 35.692487 -113.262098 73 9020ft 163kts
16-Apr-18 14:19 35.705212 -113.208722 73 9020ft 163kts
16-Apr-18 14:20 35.717939 -113.155217 73 9020ft 163kts
16-Apr-18 14:21 35.730638 -113.101720 73 9020ft 163kts
16-Apr-18 14:22 35.743296 -113.048274 73 9020ft 163kts
16-Apr-18 14:23 35.755962 -112.994678 73 9020ft 163kts
16-Apr-18 14:24 35.768581 -112.941170 73 9020ft 163kts
16-Apr-18 14:25 35.780708 -112.889624 74 9020ft 163kts
16-Apr-18 14:26 35.778611 -112.836573 108 9021ft 162kts
16-Apr-18 14:27 35.766967 -112.782806 103 9020ft 163kts
16-Apr-18 14:28 35.756501 -112.728605 103 9020ft 163kts
16-Apr-18 14:29 35.746066 -112.674412 103 9020ft 163kts
16-Apr-18 14:30 35.735556 -112.619950 103 9021ft 165kts
16-Apr-18 14:31 35.724846 -112.564602 103 9020ft 166kts
16-Apr-18 14:32 35.714097 -112.509205 103 9020ft 167kts
16-Apr-18 14:33 35.703308 -112.453741 103 9020ft 167kts
16-Apr-18 14:34 35.709168 -112.402649 40 9021ft 166kts
16-Apr-18 14:35 35.744448 -112.365749 40 9020ft 167kts
16-Apr-18 14:36 35.779738 -112.328760 40 9020ft 167kts
16-Apr-18 14:37 35.810806 -112.296154 40 8952ft 136kts
16-Apr-18 14:38 35.840342 -112.265046 40 8457ft 144kts
16-Apr-18 14:39 35.870022 -112.233816 40 8250ft 129kts
16-Apr-18 14:40 35.892504 -112.202912 54 8222ft 117kts
16-Apr-18 14:41 35.914401 -112.171437 47 7927ft 122kts
16-Apr-18 14:42 35.937443 -112.141728 39 7813ft 111kts
16-Apr-18 14:43 35.960287 -112.120157 34 7541ft 97kts
16-Apr-18 14:44 35.979653 -112.122097 254 7501ft 99kts
16-Apr-18 14:45 35.958813 -112.140111 220 6603ft 75kts
16-Apr-18 14:46 35.953411 -112.144225 112 6585ft 0kts
16-Apr-18 14:47 35.953411 -112.144225 112 6585ft 0kts
16-Apr-18 14:48 35.953411 -112.144225 112 6585ft 0kts
16-Apr-18 14:49 35.953411 -112.144225 112 6585ft 0kts
16-Apr-18 14:50 35.953411 -112.144225 112 6585ft 0kts
16-Apr-18 14:51 35.953411 -112.144225 112 6585ft 0kts
16-Apr-18 14:52 35.953411 -112.144225 112 6585ft 0kts
16-Apr-18 14:53 35.953411 -112.144225 112 6585ft 0kts
16-Apr-18 14:54 35.953411 -112.144225 112 6585ft 0kts
16-Apr-18 14:55 35.953411 -112.144225 112 6585ft 0kts
16-Apr-18 14:56 35.953411 -112.144225 112 6585ft 0kts
16-Apr-18 14:57 35.953411 -112.144225 112 6585ft 0kts
16-Apr-18 14:58 35.953411 -112.144225 112 6585ft 0kts
16-Apr-18 14:59 35.953411 -112.144225 112 6585ft 0kts
16-Apr-18 15:00 35.953411 -112.144225 112 6585ft 0kts

Navigation Log

Ident Type
Flight plan parsing failed, navigation log unavailable